createdAt,value
2023-05-14T00:01:36.421Z,46.58
2023-05-14T00:04:04.331Z,46.33
2023-05-14T00:06:32.202Z,46.87
2023-05-14T00:08:59.459Z,47.15
2023-05-14T00:11:26.615Z,46.78
2023-05-14T00:13:53.770Z,46.81
2023-05-14T00:16:26.144Z,45.86
2023-05-14T00:18:53.262Z,45.95
2023-05-14T00:21:20.460Z,45.62
2023-05-14T00:23:49.090Z,45.61
2023-05-14T00:26:16.537Z,46.34
2023-05-14T00:28:44.371Z,47.39
2023-05-14T00:31:11.394Z,47.26
2023-05-14T00:33:38.502Z,47.17
2023-05-14T00:36:05.564Z,47.42
2023-05-14T00:38:32.564Z,47.51
2023-05-14T00:40:59.668Z,47.66
2023-05-14T00:43:27.524Z,47.76
2023-05-14T00:45:54.755Z,48.31
2023-05-14T00:48:22.868Z,47.73
2023-05-14T00:50:50.067Z,47.94
2023-05-14T00:53:17.543Z,47.55
2023-05-14T00:55:45.999Z,47.85
2023-05-14T00:58:14.156Z,47.65
2023-05-14T01:00:41.484Z,47.57
2023-05-14T01:03:09.424Z,47.71
2023-05-14T01:05:42.695Z,47.74
2023-05-14T01:08:23.734Z,48.27
2023-05-14T01:11:14.220Z,48.59
2023-05-14T01:13:44.477Z,48.67
2023-05-14T01:16:12.721Z,48.12
2023-05-14T01:18:40.592Z,48.02
2023-05-14T01:21:18.839Z,48.10
2023-05-14T01:23:45.818Z,47.76
2023-05-14T01:26:12.994Z,48.30
2023-05-14T01:28:40.182Z,48.30
2023-05-14T01:31:07.593Z,48.42
2023-05-14T01:33:34.658Z,48.32
2023-05-14T01:36:01.768Z,48.46
2023-05-14T01:38:31.939Z,48.10
2023-05-14T01:40:59.183Z,48.16
2023-05-14T01:43:26.265Z,48.24
2023-05-14T01:45:55.851Z,48.28
2023-05-14T01:48:23.267Z,48.28
2023-05-14T01:50:51.791Z,48.34
2023-05-14T01:53:19.203Z,48.39
2023-05-14T01:55:47.820Z,48.64
2023-05-14T01:58:14.835Z,49.03
2023-05-14T02:00:41.727Z,48.96
2023-05-14T02:03:08.875Z,48.91
2023-05-14T02:05:35.865Z,49.52
2023-05-14T02:08:02.758Z,49.83
2023-05-14T02:10:29.763Z,49.56
2023-05-14T02:12:56.710Z,49.22
2023-05-14T02:15:23.715Z,49.34
2023-05-14T02:17:50.804Z,49.44
2023-05-14T02:20:18.114Z,49.55
2023-05-14T02:22:46.474Z,49.68
2023-05-14T02:25:13.936Z,49.56
2023-05-14T02:27:40.925Z,49.44
2023-05-14T02:30:10.250Z,49.60
2023-05-14T02:32:39.909Z,49.81
2023-05-14T02:35:07.226Z,49.62
2023-05-14T02:38:00.952Z,49.16
2023-05-14T02:40:28.344Z,48.54
2023-05-14T02:42:55.356Z,48.03
2023-05-14T02:45:22.512Z,46.97
2023-05-14T02:47:49.603Z,46.51
2023-05-14T02:50:16.715Z,45.86
2023-05-14T02:52:43.861Z,44.98
2023-05-14T02:55:11.948Z,44.78
2023-05-14T02:57:39.029Z,44.68
2023-05-14T03:00:07.679Z,43.96
2023-05-14T03:02:36.161Z,43.33
2023-05-14T03:05:03.856Z,43.10
2023-05-14T03:07:30.931Z,42.49
2023-05-14T03:10:00.474Z,41.98
2023-05-14T03:12:27.487Z,41.61
2023-05-14T03:14:54.534Z,40.91
2023-05-14T03:17:21.522Z,40.64
2023-05-14T03:19:48.610Z,40.18
2023-05-14T03:22:15.893Z,39.44
2023-05-14T03:24:43.260Z,39.31
2023-05-14T03:27:10.832Z,38.94
2023-05-14T03:29:37.780Z,38.39
2023-05-14T03:32:04.984Z,37.75
2023-05-14T03:34:32.030Z,37.23
2023-05-14T03:36:59.115Z,37.37
2023-05-14T03:39:26.078Z,37.04
2023-05-14T03:41:53.054Z,36.61
2023-05-14T03:44:20.109Z,36.47
2023-05-14T03:46:47.175Z,36.15
2023-05-14T03:49:14.442Z,35.65
2023-05-14T03:51:41.474Z,35.38
2023-05-14T03:54:08.478Z,34.62
2023-05-14T03:56:35.900Z,34.48
2023-05-14T03:59:03.363Z,33.99
2023-05-14T04:01:32.141Z,34.16
2023-05-14T04:03:59.331Z,33.26
2023-05-14T04:06:26.800Z,33.19
2023-05-14T04:08:55.037Z,32.27
2023-05-14T04:11:22.504Z,32.23
2023-05-14T04:13:49.676Z,32.26
2023-05-14T04:16:17.522Z,31.31
2023-05-14T04:18:44.682Z,31.01
2023-05-14T04:21:12.757Z,29.87
2023-05-14T04:23:39.873Z,29.79
2023-05-14T04:26:07.020Z,28.82
2023-05-14T04:28:34.074Z,28.69
2023-05-14T04:31:01.469Z,28.38
2023-05-14T04:33:28.930Z,28.22
2023-05-14T04:35:56.089Z,27.99
2023-05-14T04:38:23.522Z,28.24
2023-05-14T04:40:50.633Z,27.76
2023-05-14T04:43:17.890Z,26.18
2023-05-14T04:45:45.225Z,26.48
2023-05-14T04:48:12.479Z,26.43
2023-05-14T04:50:39.621Z,25.42
2023-05-14T04:53:06.714Z,25.55
2023-05-14T04:55:33.908Z,25.12
2023-05-14T04:58:01.149Z,25.07
2023-05-14T05:00:28.968Z,23.98
2023-05-14T05:02:56.128Z,23.43
2023-05-14T05:05:23.980Z,23.21
2023-05-14T05:07:51.480Z,23.76
2023-05-14T05:10:18.657Z,23.32
2023-05-14T05:12:45.757Z,23.12
2023-05-14T05:15:12.905Z,22.65
2023-05-14T05:17:40.130Z,22.71
2023-05-14T05:20:10.027Z,22.48
2023-05-14T05:22:37.341Z,21.60
2023-05-14T05:25:08.467Z,21.86
2023-05-14T05:27:35.694Z,21.57
2023-05-14T05:30:04.309Z,21.54
2023-05-14T05:32:31.667Z,21.57
2023-05-14T05:34:59.512Z,21.25
2023-05-14T05:37:26.687Z,20.97
2023-05-14T05:39:54.380Z,20.49
2023-05-14T05:42:22.747Z,20.93
2023-05-14T05:44:50.052Z,20.30
2023-05-14T05:47:17.409Z,20.04
2023-05-14T05:49:44.692Z,19.99
2023-05-14T05:52:11.976Z,19.95
2023-05-14T05:54:40.133Z,19.88
2023-05-14T05:57:07.328Z,20.21
2023-05-14T05:59:34.918Z,19.33
2023-05-14T06:02:02.328Z,19.30
2023-05-14T06:04:38.052Z,19.05
2023-05-14T06:07:41.686Z,19.14
2023-05-14T06:10:09.049Z,18.95
2023-05-14T06:12:36.392Z,18.72
2023-05-14T06:15:03.808Z,18.66
2023-05-14T06:17:31.051Z,18.34
2023-05-14T06:19:58.532Z,18.20
2023-05-14T06:22:25.735Z,17.88
2023-05-14T06:24:53.004Z,17.86
2023-05-14T06:27:20.494Z,18.14
2023-05-14T06:29:47.672Z,17.95
2023-05-14T06:32:16.452Z,17.63
2023-05-14T06:34:43.782Z,17.28
2023-05-14T06:37:11.287Z,17.56
2023-05-14T06:39:38.632Z,17.87
2023-05-14T06:42:06.492Z,17.91
2023-05-14T06:44:36.944Z,17.39
2023-05-14T06:47:04.260Z,16.90
2023-05-14T06:49:31.592Z,17.02
2023-05-14T06:51:59.314Z,16.71
2023-05-14T06:54:26.543Z,16.74
2023-05-14T06:56:54.265Z,16.57
2023-05-14T06:59:21.522Z,16.93
2023-05-14T07:01:49.077Z,17.22
2023-05-14T07:04:16.889Z,17.32
2023-05-14T07:06:44.199Z,17.72
2023-05-14T07:09:17.220Z,17.26
2023-05-14T07:11:44.645Z,17.26
2023-05-14T07:14:11.924Z,16.75
2023-05-14T07:16:39.050Z,16.49
2023-05-14T07:19:06.274Z,16.53
2023-05-14T07:21:33.551Z,16.27
2023-05-14T07:24:00.752Z,16.46
2023-05-14T07:26:27.976Z,16.51
2023-05-14T07:28:55.355Z,16.18
2023-05-14T07:31:22.734Z,15.93
2023-05-14T07:33:50.007Z,15.75
2023-05-14T07:36:17.206Z,15.75
2023-05-14T07:38:44.664Z,15.75
2023-05-14T07:41:12.639Z,15.89
2023-05-14T07:43:40.766Z,15.83
2023-05-14T07:46:08.077Z,16.14
2023-05-14T07:48:35.667Z,16.08
2023-05-14T07:51:03.049Z,15.46
2023-05-14T07:53:30.401Z,14.98
2023-05-14T07:55:58.509Z,15.00
2023-05-14T07:58:26.966Z,14.61
2023-05-14T08:00:54.104Z,14.50
2023-05-14T08:03:21.593Z,14.31
2023-05-14T08:05:49.163Z,14.15
2023-05-14T08:08:16.431Z,14.31
2023-05-14T08:10:43.658Z,14.76
2023-05-14T08:13:11.204Z,14.70
2023-05-14T08:15:38.553Z,14.48
2023-05-14T08:18:05.794Z,14.50
2023-05-14T08:20:33.068Z,14.65
2023-05-14T08:23:00.213Z,14.67
2023-05-14T08:25:27.720Z,14.59
2023-05-14T08:27:55.049Z,15.25
2023-05-14T08:30:23.370Z,15.34
2023-05-14T08:32:51.168Z,15.53
2023-05-14T08:35:19.252Z,15.97
2023-05-14T08:37:46.539Z,16.05
2023-05-14T08:40:13.793Z,15.87
2023-05-14T08:42:42.026Z,15.49
2023-05-14T08:45:29.780Z,15.83
2023-05-14T08:47:57.052Z,15.77
2023-05-14T08:50:24.192Z,15.35
2023-05-14T08:52:51.406Z,14.85
2023-05-14T08:55:18.419Z,14.94
2023-05-14T08:57:45.513Z,14.82
2023-05-14T09:00:13.313Z,14.74
2023-05-14T09:02:40.678Z,14.85
2023-05-14T09:05:09.485Z,14.52
2023-05-14T09:07:36.631Z,14.84
2023-05-14T09:10:04.778Z,14.44
2023-05-14T09:12:32.003Z,14.41
2023-05-14T09:14:59.337Z,14.68
2023-05-14T09:17:28.113Z,14.62
2023-05-14T09:19:55.272Z,14.07
2023-05-14T09:22:22.609Z,13.70
2023-05-14T09:25:05.984Z,13.43
2023-05-14T09:27:33.429Z,13.48
2023-05-14T09:30:08.326Z,13.53
2023-05-14T09:32:36.204Z,13.10
2023-05-14T09:35:14.930Z,13.20
2023-05-14T09:37:44.132Z,12.55
2023-05-14T09:40:13.457Z,12.92
2023-05-14T09:42:40.801Z,12.33
2023-05-14T09:45:08.763Z,12.79
2023-05-14T09:47:36.537Z,13.26
2023-05-14T09:50:04.112Z,13.40
2023-05-14T09:52:31.321Z,13.45
2023-05-14T09:54:58.560Z,13.57
2023-05-14T09:57:27.124Z,13.25
2023-05-14T09:59:54.454Z,13.10
2023-05-14T10:02:25.615Z,13.29
2023-05-14T10:04:58.355Z,13.34
2023-05-14T10:07:27.651Z,13.77
2023-05-14T10:09:57.159Z,13.58
2023-05-14T10:12:25.115Z,14.12
2023-05-14T10:14:53.998Z,13.97
2023-05-14T10:17:24.991Z,14.26
2023-05-14T10:19:53.238Z,14.29
2023-05-14T10:22:22.850Z,14.70
2023-05-14T10:24:52.961Z,15.25
2023-05-14T10:31:41.725Z,15.88
2023-05-14T10:34:58.835Z,16.75
2023-05-14T10:37:29.688Z,16.62
2023-05-14T10:43:10.795Z,16.60
2023-05-14T10:47:17.070Z,16.88
2023-05-14T10:51:09.084Z,16.74
2023-05-14T10:54:48.913Z,17.12
2023-05-14T10:58:19.871Z,16.79
2023-05-14T11:05:21.352Z,18.30
2023-05-14T11:08:57.657Z,18.70
2023-05-14T11:11:26.520Z,19.75
2023-05-14T11:13:54.079Z,21.10
2023-05-14T11:16:23.957Z,23.07
2023-05-14T11:19:02.174Z,24.70
2023-05-14T11:21:30.483Z,26.11
2023-05-14T11:23:57.856Z,29.33
2023-05-14T11:26:26.225Z,30.93
2023-05-14T11:28:53.491Z,30.53
2023-05-14T11:31:21.942Z,26.87
2023-05-14T11:33:49.189Z,26.29
2023-05-14T11:36:16.592Z,26.90
2023-05-14T11:38:54.774Z,27.94
2023-05-14T11:41:23.585Z,26.10
2023-05-14T11:43:55.039Z,25.71
2023-05-14T11:46:23.108Z,26.11
2023-05-14T11:48:51.113Z,26.67
2023-05-14T11:51:18.485Z,26.99
2023-05-14T11:53:47.702Z,26.24
2023-05-14T11:56:15.014Z,26.45
2023-05-14T11:58:47.847Z,25.61
2023-05-14T12:01:15.185Z,24.78
2023-05-14T12:04:06.902Z,25.00
2023-05-14T12:06:57.840Z,27.62
2023-05-14T12:09:26.230Z,27.14
2023-05-14T12:11:55.621Z,26.82
2023-05-14T12:14:23.984Z,27.63
2023-05-14T12:16:54.464Z,28.85
2023-05-14T12:19:24.948Z,27.90
2023-05-14T12:21:52.339Z,28.73
2023-05-14T12:24:20.481Z,27.64
2023-05-14T12:27:09.147Z,26.54
2023-05-14T12:29:39.570Z,25.75
2023-05-14T12:32:10.162Z,25.49
2023-05-14T12:34:37.892Z,25.59
2023-05-14T12:37:06.257Z,25.37
2023-05-14T12:39:33.780Z,25.46
2023-05-14T12:42:01.396Z,25.50
2023-05-14T12:44:28.794Z,25.55
2023-05-14T12:46:56.216Z,25.45
2023-05-14T12:49:23.776Z,25.09
2023-05-14T12:51:56.706Z,26.01
2023-05-14T12:54:31.981Z,25.87
2023-05-14T12:56:59.325Z,25.04
2023-05-14T12:59:26.582Z,24.45
2023-05-14T13:01:53.981Z,25.08
2023-05-14T13:04:21.219Z,24.77
2023-05-14T13:06:48.410Z,24.25
2023-05-14T13:09:15.745Z,24.07
2023-05-14T13:11:42.914Z,24.56
2023-05-14T13:14:10.385Z,24.38
2023-05-14T13:16:37.542Z,24.02
2023-05-14T13:19:04.796Z,24.38
2023-05-14T13:21:32.432Z,24.08
2023-05-14T13:23:59.675Z,23.87
2023-05-14T13:26:28.558Z,24.05
2023-05-14T13:28:55.949Z,24.82
2023-05-14T13:31:23.192Z,25.05
2023-05-14T13:33:50.363Z,25.22
2023-05-14T13:36:17.521Z,25.11
2023-05-14T13:38:46.254Z,25.15
2023-05-14T13:41:13.416Z,25.65
2023-05-14T13:43:41.787Z,25.61
2023-05-14T13:46:09.079Z,25.45
2023-05-14T13:48:37.558Z,25.06
2023-05-14T13:51:04.895Z,24.99
2023-05-14T13:53:32.089Z,24.81
2023-05-14T13:56:01.446Z,23.94
2023-05-14T13:58:28.660Z,23.65
2023-05-14T14:00:56.823Z,24.15
2023-05-14T14:03:23.963Z,24.06
2023-05-14T14:05:52.508Z,23.88
2023-05-14T14:08:23.906Z,23.58
2023-05-14T14:10:51.868Z,23.58
2023-05-14T14:13:18.984Z,23.57
2023-05-14T14:15:46.083Z,23.37
2023-05-14T14:18:13.175Z,22.96
2023-05-14T14:20:40.225Z,23.02
2023-05-14T14:23:07.279Z,23.10
2023-05-14T14:25:34.429Z,23.07
2023-05-14T14:28:01.848Z,22.77
2023-05-14T14:30:29.160Z,23.05
2023-05-14T14:32:56.192Z,22.88
2023-05-14T14:35:23.550Z,22.94
2023-05-14T14:37:53.867Z,23.12
2023-05-14T14:40:21.096Z,22.63
2023-05-14T14:42:48.247Z,23.59
2023-05-14T14:45:15.479Z,23.61
2023-05-14T14:47:46.590Z,24.31
2023-05-14T14:50:13.937Z,24.34
2023-05-14T14:52:41.488Z,24.63
2023-05-14T14:55:09.092Z,24.75
2023-05-14T14:57:36.227Z,25.14
2023-05-14T15:00:03.995Z,24.98
2023-05-14T15:02:31.162Z,25.04
2023-05-14T15:04:58.432Z,25.21
2023-05-14T15:07:26.225Z,25.14
2023-05-14T15:09:53.356Z,25.06
2023-05-14T15:12:20.635Z,25.24
2023-05-14T15:14:48.996Z,25.25
2023-05-14T15:17:16.292Z,25.33
2023-05-14T15:19:43.563Z,25.47
2023-05-14T15:22:10.994Z,25.39
2023-05-14T15:24:38.003Z,26.10
2023-05-14T15:27:05.131Z,25.94
2023-05-14T15:29:32.440Z,25.93
2023-05-14T15:31:59.547Z,26.01
2023-05-14T15:34:26.713Z,26.12
2023-05-14T15:36:53.698Z,26.16
2023-05-14T15:39:20.705Z,26.02
2023-05-14T15:41:47.826Z,26.04
2023-05-14T15:44:14.934Z,26.24
2023-05-14T15:46:42.115Z,26.18
2023-05-14T15:49:09.261Z,26.32
2023-05-14T15:51:36.422Z,26.11
2023-05-14T15:54:03.727Z,26.51
2023-05-14T15:56:31.143Z,26.72
2023-05-14T15:58:58.336Z,26.83
2023-05-14T16:01:25.521Z,26.59
2023-05-14T16:03:52.837Z,26.87
2023-05-14T16:06:20.224Z,27.14
2023-05-14T16:08:47.260Z,27.43
2023-05-14T16:11:14.455Z,27.54
2023-05-14T16:13:41.959Z,27.76
2023-05-14T16:16:09.285Z,27.89
2023-05-14T16:18:36.501Z,28.11
2023-05-14T16:21:03.864Z,27.97
2023-05-14T16:23:31.220Z,28.51
2023-05-14T16:25:58.424Z,28.21
2023-05-14T16:28:25.579Z,28.42
2023-05-14T16:30:52.812Z,28.96
2023-05-14T16:33:20.100Z,28.99
2023-05-14T16:35:47.233Z,29.17
2023-05-14T16:38:14.370Z,29.39
2023-05-14T16:40:42.020Z,29.34
2023-05-14T16:43:09.270Z,29.79
2023-05-14T16:45:37.688Z,29.65
2023-05-14T16:48:05.479Z,29.82
2023-05-14T16:50:32.703Z,29.98
2023-05-14T16:52:59.835Z,29.95
2023-05-14T16:55:27.047Z,30.01
2023-05-14T16:57:54.172Z,30.37
2023-05-14T17:00:21.504Z,30.68
2023-05-14T17:02:50.276Z,30.63
2023-05-14T17:05:18.895Z,30.61
2023-05-14T17:07:46.130Z,30.92
2023-05-14T17:10:13.287Z,30.94
2023-05-14T17:12:40.482Z,31.20
2023-05-14T17:15:08.063Z,31.26
2023-05-14T17:17:36.064Z,31.61
2023-05-14T17:20:06.033Z,31.51
2023-05-14T17:22:33.267Z,31.77
2023-05-14T17:25:31.781Z,32.07
2023-05-14T17:27:59.177Z,32.67
2023-05-14T17:30:26.722Z,32.38
2023-05-14T17:32:54.025Z,32.80
2023-05-14T17:35:21.307Z,32.63
2023-05-14T17:37:48.753Z,32.76
2023-05-14T17:40:15.850Z,33.09
2023-05-14T17:42:45.757Z,32.82
2023-05-14T17:45:13.753Z,33.30
2023-05-14T17:47:41.020Z,33.57
2023-05-14T17:50:08.524Z,33.97
2023-05-14T17:52:35.832Z,33.53
2023-05-14T17:55:02.983Z,33.45
2023-05-14T17:57:30.094Z,34.07
2023-05-14T17:59:57.179Z,33.79
2023-05-14T18:02:24.280Z,33.43
2023-05-14T18:04:52.514Z,33.21
2023-05-14T18:07:21.053Z,33.60
2023-05-14T18:09:48.620Z,33.48
2023-05-14T18:12:15.900Z,33.68
2023-05-14T18:14:45.355Z,34.07
2023-05-14T18:17:12.862Z,33.92
2023-05-14T18:19:41.280Z,34.39
2023-05-14T18:22:08.396Z,34.31
2023-05-14T18:24:35.398Z,34.54
2023-05-14T18:27:02.690Z,33.72
2023-05-14T18:29:32.627Z,33.95
2023-05-14T18:32:00.140Z,33.80
2023-05-14T18:34:28.187Z,33.90
2023-05-14T18:44:37.864Z,35.08
2023-05-14T18:47:40.960Z,34.90
2023-05-14T18:50:26.696Z,35.23
2023-05-14T18:53:33.170Z,34.20
2023-05-14T18:56:19.725Z,34.69
2023-05-14T18:59:20.276Z,35.04
2023-05-14T19:01:47.903Z,35.02
2023-05-14T19:04:15.297Z,34.46
2023-05-14T19:06:49.996Z,34.52
2023-05-14T19:09:21.332Z,34.91
2023-05-14T19:12:25.825Z,34.85
2023-05-14T19:15:31.454Z,35.01
2023-05-14T19:18:02.181Z,35.22
2023-05-14T19:20:34.497Z,35.07
2023-05-14T19:23:04.520Z,35.61
2023-05-14T19:25:31.862Z,35.89
2023-05-14T19:28:05.153Z,35.82
2023-05-14T19:30:33.209Z,35.70
2023-05-14T19:33:00.490Z,36.04
2023-05-14T19:35:27.825Z,35.57
2023-05-14T19:42:05.149Z,36.02
2023-05-14T19:48:56.395Z,36.53
2023-05-14T19:55:36.468Z,36.53
2023-05-14T20:01:35.040Z,37.19
2023-05-14T20:04:02.578Z,37.14
2023-05-14T20:06:29.955Z,37.67
2023-05-14T20:08:57.564Z,37.59
2023-05-14T20:11:24.910Z,37.98
2023-05-14T20:13:53.070Z,38.55
2023-05-14T20:16:20.380Z,39.26
2023-05-14T20:18:47.768Z,39.93
2023-05-14T20:21:15.149Z,39.93
2023-05-14T20:23:42.585Z,40.05
2023-05-14T20:26:10.600Z,40.25
2023-05-14T20:28:37.915Z,39.97
2023-05-14T20:31:05.273Z,39.93
2023-05-14T20:33:32.868Z,40.96
2023-05-14T20:36:00.631Z,40.43
2023-05-14T20:38:29.611Z,40.32
2023-05-14T20:40:57.106Z,40.19
2023-05-14T20:43:42.686Z,40.13
2023-05-14T20:46:25.948Z,40.24
2023-05-14T20:49:00.979Z,40.52
2023-05-14T20:51:49.161Z,41.03
2023-05-14T20:57:43.748Z,41.05
2023-05-14T21:01:05.724Z,41.19
2023-05-14T21:17:35.620Z,42.45
2023-05-14T21:23:57.780Z,42.17
2023-05-14T21:26:59.375Z,41.95
2023-05-14T21:29:44.703Z,42.26
2023-05-14T21:39:30.789Z,42.40
2023-05-14T21:42:31.983Z,42.12
2023-05-14T21:45:00.366Z,42.18
2023-05-14T21:47:28.271Z,42.19
2023-05-14T21:49:55.714Z,42.37
2023-05-14T21:52:22.941Z,42.59
2023-05-14T21:55:09.767Z,43.05
2023-05-14T21:58:28.666Z,44.18
2023-05-14T22:09:09.604Z,45.16
2023-05-14T22:12:12.824Z,45.00
2023-05-14T22:15:29.666Z,44.75
2023-05-14T22:18:54.004Z,44.70
2023-05-14T22:25:39.322Z,44.45
2023-05-14T22:28:08.114Z,44.42
2023-05-14T22:30:36.390Z,44.18
2023-05-14T22:33:07.140Z,44.12
2023-05-14T22:35:41.702Z,44.28
2023-05-14T22:38:11.551Z,44.07
2023-05-14T22:40:56.435Z,43.97
2023-05-14T22:43:43.777Z,44.05
2023-05-14T22:47:09.724Z,44.75
2023-05-14T22:50:02.831Z,44.18
2023-05-14T22:56:36.834Z,44.08
2023-05-14T23:00:19.491Z,44.22
2023-05-14T23:03:38.895Z,44.57
2023-05-14T23:06:37.695Z,44.71
2023-05-14T23:13:12.917Z,46.17
2023-05-14T23:19:28.852Z,46.27
2023-05-14T23:22:30.643Z,46.95
2023-05-14T23:26:00.517Z,47.15
2023-05-14T23:29:08.489Z,46.79
2023-05-14T23:31:36.240Z,46.90
2023-05-14T23:34:08.679Z,47.09
2023-05-14T23:36:39.264Z,47.16
2023-05-14T23:39:06.865Z,47.57
2023-05-14T23:41:35.359Z,47.18
2023-05-14T23:44:14.671Z,46.97
